createdAt,value
2023-05-12T00:00:32.112Z,1009.69
2023-05-12T00:01:33.004Z,1009.70
2023-05-12T00:02:33.982Z,1009.70
2023-05-12T00:03:34.715Z,1009.69
2023-05-12T00:04:35.240Z,1009.70
2023-05-12T00:05:36.131Z,1009.70
2023-05-12T00:06:37.025Z,1009.72
2023-05-12T00:07:37.919Z,1009.74
2023-05-12T00:08:38.786Z,1009.74
2023-05-12T00:09:39.691Z,1009.74
2023-05-12T00:10:40.601Z,1009.76
2023-05-12T00:11:41.488Z,1009.77
2023-05-12T00:12:42.391Z,1009.78
2023-05-12T00:13:43.426Z,1009.79
2023-05-12T00:14:43.900Z,1009.81
2023-05-12T00:15:44.793Z,1009.83
2023-05-12T00:16:45.720Z,1009.85
2023-05-12T00:17:46.634Z,1009.86
2023-05-12T00:18:47.604Z,1009.87
2023-05-12T00:19:48.491Z,1009.89
2023-05-12T00:20:49.429Z,1009.90
2023-05-12T00:21:50.372Z,1009.92
2023-05-12T00:22:51.256Z,1009.94
2023-05-12T00:23:52.197Z,1009.94
2023-05-12T00:24:53.104Z,1009.94
2023-05-12T00:25:54.010Z,1009.93
2023-05-12T00:26:54.885Z,1009.92
2023-05-12T00:27:55.787Z,1009.91
2023-05-12T00:28:56.703Z,1009.90
2023-05-12T00:29:57.597Z,1009.90
2023-05-12T00:30:58.479Z,1009.90
2023-05-12T00:31:59.431Z,1009.89
2023-05-12T00:33:00.382Z,1009.89
2023-05-12T00:34:00.837Z,1009.89
2023-05-12T00:35:01.722Z,1009.89
2023-05-12T00:36:02.612Z,1009.90
2023-05-12T00:37:03.508Z,1009.91
2023-05-12T00:38:04.400Z,1009.91
2023-05-12T00:39:05.373Z,1009.92
2023-05-12T00:40:06.309Z,1009.93
2023-05-12T00:41:07.208Z,1009.93
2023-05-12T00:42:08.169Z,1009.93
2023-05-12T00:43:09.085Z,1009.93
2023-05-12T00:44:09.976Z,1009.93
2023-05-12T00:45:10.879Z,1009.93
2023-05-12T00:46:11.814Z,1009.93
2023-05-12T00:47:12.711Z,1009.95
2023-05-12T00:48:13.610Z,1009.94
2023-05-12T00:49:14.496Z,1009.95
2023-05-12T00:50:15.389Z,1009.94
2023-05-12T00:51:16.275Z,1009.96
2023-05-12T00:52:17.328Z,1009.95
2023-05-12T00:53:17.721Z,1009.94
2023-05-12T00:54:18.605Z,1009.93
2023-05-12T00:55:19.495Z,1009.92
2023-05-12T00:56:20.430Z,1009.95
2023-05-12T00:57:21.318Z,1009.95
2023-05-12T00:58:22.193Z,1009.97
2023-05-12T00:59:23.105Z,1009.96
2023-05-12T01:00:23.990Z,1009.97
2023-05-12T01:01:24.924Z,1009.95
2023-05-12T01:02:25.873Z,1009.95
2023-05-12T01:03:26.789Z,1009.96
2023-05-12T01:04:27.646Z,1009.97
2023-05-12T01:05:28.602Z,1009.97
2023-05-12T01:06:29.496Z,1009.96
2023-05-12T01:07:30.396Z,1009.97
2023-05-12T01:08:31.275Z,1009.96
2023-05-12T01:09:32.162Z,1009.97
2023-05-12T01:10:33.068Z,1009.97
2023-05-12T01:11:33.986Z,1009.96
2023-05-12T01:12:34.865Z,1009.98
2023-05-12T01:13:35.754Z,1010.00
2023-05-12T01:14:36.989Z,1010.00
2023-05-12T01:15:37.456Z,1010.00
2023-05-12T01:16:38.309Z,1010.03
2023-05-12T01:17:39.470Z,1010.01
2023-05-12T01:18:40.030Z,1010.00
2023-05-12T01:19:40.910Z,1009.99
2023-05-12T01:20:41.808Z,1009.99
2023-05-12T01:21:42.686Z,1009.98
2023-05-12T01:22:43.615Z,1009.98
2023-05-12T01:23:44.490Z,1009.97
2023-05-12T01:24:45.414Z,1009.96
2023-05-12T01:25:46.310Z,1009.93
2023-05-12T01:26:47.209Z,1009.93
2023-05-12T01:27:48.104Z,1009.89
2023-05-12T01:28:49.017Z,1009.87
2023-05-12T01:29:49.929Z,1009.87
2023-05-12T01:30:50.856Z,1009.89
2023-05-12T01:31:51.747Z,1009.89
2023-05-12T01:32:52.665Z,1009.88
2023-05-12T01:33:53.554Z,1009.88
2023-05-12T01:34:54.455Z,1009.86
2023-05-12T01:35:55.352Z,1009.86
2023-05-12T01:36:56.225Z,1009.86
2023-05-12T01:37:57.186Z,1009.87
2023-05-12T01:38:58.077Z,1009.88
2023-05-12T01:39:58.964Z,1009.90
2023-05-12T01:40:59.838Z,1009.92
2023-05-12T01:42:00.720Z,1009.92
2023-05-12T01:43:01.629Z,1009.93
2023-05-12T01:44:02.517Z,1009.93
2023-05-12T01:45:03.417Z,1009.94
2023-05-12T01:46:04.358Z,1009.94
2023-05-12T01:47:05.242Z,1009.95
2023-05-12T01:48:06.184Z,1009.97
2023-05-12T01:49:07.041Z,1009.98
2023-05-12T01:50:07.766Z,1009.99
2023-05-12T01:51:08.727Z,1009.99
2023-05-12T01:52:09.622Z,1009.99
2023-05-12T01:53:10.553Z,1009.99
2023-05-12T01:54:11.417Z,1009.98
2023-05-12T01:55:12.307Z,1009.98
2023-05-12T01:56:13.200Z,1010.00
2023-05-12T01:57:14.106Z,1010.01
2023-05-12T01:58:15.006Z,1010.01
2023-05-12T01:59:15.892Z,1010.01
2023-05-12T02:00:16.819Z,1010.01
2023-05-12T02:01:17.751Z,1010.02
2023-05-12T02:02:18.645Z,1010.05
2023-05-12T02:03:19.677Z,1010.05
2023-05-12T02:04:20.088Z,1010.07
2023-05-12T02:05:20.965Z,1010.07
2023-05-12T02:06:21.882Z,1010.07
2023-05-12T02:07:22.753Z,1010.08
2023-05-12T02:08:23.679Z,1010.09
2023-05-12T02:09:24.551Z,1010.11
2023-05-12T02:10:25.446Z,1010.12
2023-05-12T02:11:26.350Z,1010.13
2023-05-12T02:12:27.232Z,1010.14
2023-05-12T02:13:28.119Z,1010.14
2023-05-12T02:14:29.017Z,1010.14
2023-05-12T02:15:29.925Z,1010.14
2023-05-12T02:16:30.863Z,1010.13
2023-05-12T02:17:31.739Z,1010.15
2023-05-12T02:18:32.713Z,1010.16
2023-05-12T02:19:33.556Z,1010.17
2023-05-12T02:20:34.459Z,1010.17
2023-05-12T02:21:35.349Z,1010.17
2023-05-12T02:22:36.265Z,1010.16
2023-05-12T02:23:37.293Z,1010.16
2023-05-12T02:24:37.693Z,1010.16
2023-05-12T02:25:38.632Z,1010.17
2023-05-12T02:26:39.513Z,1010.18
2023-05-12T02:27:40.409Z,1010.19
2023-05-12T02:28:41.295Z,1010.19
2023-05-12T02:29:42.215Z,1010.19
2023-05-12T02:30:43.086Z,1010.19
2023-05-12T02:31:43.992Z,1010.20
2023-05-12T02:32:44.921Z,1010.20
2023-05-12T02:33:45.817Z,1010.19
2023-05-12T02:34:46.747Z,1010.18
2023-05-12T02:35:47.609Z,1010.18
2023-05-12T02:36:48.490Z,1010.18
2023-05-12T02:37:49.380Z,1010.17
2023-05-12T02:38:50.347Z,1010.18
2023-05-12T02:39:51.215Z,1010.18
2023-05-12T02:40:52.121Z,1010.18
2023-05-12T02:41:53.027Z,1010.18
2023-05-12T02:42:53.913Z,1010.19
2023-05-12T02:43:54.821Z,1010.18
2023-05-12T02:44:55.726Z,1010.18
2023-05-12T02:45:56.625Z,1010.17
2023-05-12T02:46:57.508Z,1010.19
2023-05-12T02:47:58.459Z,1010.19
2023-05-12T02:48:59.378Z,1010.19
2023-05-12T02:50:00.287Z,1010.20
2023-05-12T02:51:01.148Z,1010.20
2023-05-12T02:52:02.048Z,1010.20
2023-05-12T02:53:02.962Z,1010.20
2023-05-12T02:54:03.854Z,1010.20
2023-05-12T02:55:04.724Z,1010.21
2023-05-12T02:56:05.625Z,1010.23
2023-05-12T02:57:06.520Z,1010.23
2023-05-12T02:58:07.421Z,1010.23
2023-05-12T02:59:08.318Z,1010.24
2023-05-12T03:00:09.212Z,1010.23
2023-05-12T03:01:11.562Z,1010.22
2023-05-12T03:02:10.893Z,1010.22
2023-05-12T03:03:11.418Z,1010.23
2023-05-12T03:04:11.830Z,1010.22
2023-05-12T03:05:12.718Z,1010.21
2023-05-12T03:06:13.765Z,1010.21
2023-05-12T03:07:14.170Z,1010.20
2023-05-12T03:08:15.063Z,1010.18
2023-05-12T03:09:15.973Z,1010.18
2023-05-12T03:10:16.976Z,1010.17
2023-05-12T03:11:17.403Z,1010.18
2023-05-12T03:12:18.305Z,1010.18
2023-05-12T03:13:19.226Z,1010.20
2023-05-12T03:14:20.103Z,1010.21
2023-05-12T03:15:21.000Z,1010.21
2023-05-12T03:16:21.930Z,1010.20
2023-05-12T03:17:22.932Z,1010.20
2023-05-12T03:18:23.385Z,1010.21
2023-05-12T03:19:24.253Z,1010.21
2023-05-12T03:20:25.131Z,1010.21
2023-05-12T03:21:26.045Z,1010.20
2023-05-12T03:22:26.949Z,1010.20
2023-05-12T03:23:27.831Z,1010.20
2023-05-12T03:24:28.754Z,1010.20
2023-05-12T03:25:29.640Z,1010.21
2023-05-12T03:26:30.555Z,1010.22
2023-05-12T03:27:31.435Z,1010.24
2023-05-12T03:28:32.340Z,1010.25
2023-05-12T03:29:33.205Z,1010.25
2023-05-12T03:30:34.151Z,1010.26
2023-05-12T03:31:35.051Z,1010.26
2023-05-12T03:32:35.938Z,1010.27
2023-05-12T03:33:36.802Z,1010.27
2023-05-12T03:34:37.731Z,1010.27
2023-05-12T03:35:38.679Z,1010.27
2023-05-12T03:36:39.535Z,1010.27
2023-05-12T03:37:40.458Z,1010.27
2023-05-12T03:38:41.373Z,1010.29
2023-05-12T03:39:42.262Z,1010.29
2023-05-12T03:40:43.147Z,1010.27
2023-05-12T03:41:44.032Z,1010.27
2023-05-12T03:42:44.988Z,1010.28
2023-05-12T03:43:45.842Z,1010.28
2023-05-12T03:44:46.731Z,1010.30
2023-05-12T03:45:47.626Z,1010.30
2023-05-12T03:46:56.197Z,1010.33
2023-05-12T03:47:49.286Z,1010.33
2023-05-12T03:48:50.054Z,1010.34
2023-05-12T03:49:50.941Z,1010.36
2023-05-12T03:50:51.824Z,1010.38
2023-05-12T03:51:52.697Z,1010.40
2023-05-12T03:52:53.581Z,1010.41
2023-05-12T03:53:54.500Z,1010.42
2023-05-12T03:54:55.416Z,1010.44
2023-05-12T03:55:56.274Z,1010.44
2023-05-12T03:56:57.160Z,1010.45
2023-05-12T03:57:58.068Z,1010.45
2023-05-12T03:58:58.996Z,1010.46
2023-05-12T03:59:59.979Z,1010.46
2023-05-12T04:01:07.912Z,1010.48
2023-05-12T04:02:01.334Z,1010.49
2023-05-12T04:03:02.307Z,1010.50
2023-05-12T04:04:02.807Z,1010.51
2023-05-12T04:05:03.686Z,1010.51
2023-05-12T04:06:04.566Z,1010.51
2023-05-12T04:07:05.490Z,1010.52
2023-05-12T04:08:06.411Z,1010.53
2023-05-12T04:09:07.269Z,1010.53
2023-05-12T04:10:08.248Z,1010.53
2023-05-12T04:11:09.070Z,1010.52
2023-05-12T04:12:10.002Z,1010.54
2023-05-12T04:13:10.887Z,1010.54
2023-05-12T04:14:11.778Z,1010.56
2023-05-12T04:15:12.649Z,1010.55
2023-05-12T04:16:13.632Z,1010.55
2023-05-12T04:17:14.522Z,1010.57
2023-05-12T04:18:15.413Z,1010.60
2023-05-12T04:19:16.290Z,1010.61
2023-05-12T04:20:17.237Z,1010.62
2023-05-12T04:21:17.715Z,1010.62
2023-05-12T04:22:18.603Z,1010.63
2023-05-12T04:23:19.585Z,1010.64
2023-05-12T04:24:20.437Z,1010.65
2023-05-12T04:25:21.350Z,1010.67
2023-05-12T04:26:22.264Z,1010.68
2023-05-12T04:27:23.138Z,1010.70
2023-05-12T04:28:24.033Z,1010.70
2023-05-12T04:29:24.932Z,1010.70
2023-05-12T04:30:25.857Z,1010.71
2023-05-12T04:31:26.780Z,1010.72
2023-05-12T04:32:27.659Z,1010.74
2023-05-12T04:33:28.539Z,1010.74
2023-05-12T04:34:29.438Z,1010.75
2023-05-12T04:35:30.343Z,1010.76
2023-05-12T04:36:31.220Z,1010.77
2023-05-12T04:37:32.119Z,1010.78
2023-05-12T04:38:33.019Z,1010.79
2023-05-12T04:39:33.903Z,1010.81
2023-05-12T04:40:35.200Z,1010.82
2023-05-12T04:41:35.633Z,1010.84
2023-05-12T04:42:36.558Z,1010.86
2023-05-12T04:44:38.310Z,1010.90
2023-05-12T04:45:39.218Z,1010.91
2023-05-12T04:46:40.182Z,1010.92
2023-05-12T04:47:40.624Z,1010.93
2023-05-12T04:48:41.488Z,1010.93
2023-05-12T04:49:42.414Z,1010.95
2023-05-12T04:50:43.327Z,1010.95
2023-05-12T04:51:44.222Z,1010.96
2023-05-12T04:52:45.106Z,1010.97
2023-05-12T04:53:46.009Z,1010.99
2023-05-12T04:54:46.911Z,1011.01
2023-05-12T04:55:47.820Z,1011.03
2023-05-12T04:56:48.691Z,1011.05
2023-05-12T04:57:49.593Z,1011.08
2023-05-12T04:58:50.497Z,1011.10
2023-05-12T04:59:51.394Z,1011.13
2023-05-12T05:00:52.314Z,1011.15
2023-05-12T05:01:53.238Z,1011.15
2023-05-12T05:02:54.304Z,1011.16
2023-05-12T05:03:54.936Z,1011.15
2023-05-12T05:04:55.362Z,1011.16
2023-05-12T05:05:56.260Z,1011.17
2023-05-12T05:06:57.148Z,1011.19
2023-05-12T05:07:58.051Z,1011.20
2023-05-12T05:08:58.949Z,1011.21
2023-05-12T05:09:59.889Z,1011.21
2023-05-12T05:11:00.776Z,1011.22
2023-05-12T05:12:01.637Z,1011.23
2023-05-12T05:13:02.545Z,1011.23
2023-05-12T05:14:03.426Z,1011.24
2023-05-12T05:15:04.314Z,1011.26
2023-05-12T05:16:05.282Z,1011.27
2023-05-12T05:17:06.245Z,1011.28
2023-05-12T05:18:06.794Z,1011.30
2023-05-12T05:19:19.519Z,1011.32
2023-05-12T05:20:11.624Z,1011.33
2023-05-12T05:21:09.522Z,1011.35
2023-05-12T05:22:10.054Z,1011.35
2023-05-12T05:23:10.481Z,1011.35
2023-05-12T05:24:11.368Z,1011.36
2023-05-12T05:25:12.253Z,1011.38
2023-05-12T05:26:13.221Z,1011.40
2023-05-12T05:27:14.146Z,1011.41
2023-05-12T05:28:14.998Z,1011.41
2023-05-12T05:29:15.887Z,1011.42
2023-05-12T05:30:16.790Z,1011.43
2023-05-12T05:31:17.698Z,1011.43
2023-05-12T05:32:18.580Z,1011.45
2023-05-12T05:33:19.468Z,1011.46
2023-05-12T05:34:20.410Z,1011.46
2023-05-12T05:35:21.539Z,1011.47
2023-05-12T05:36:22.069Z,1011.49
2023-05-12T05:37:22.985Z,1011.51
2023-05-12T05:38:23.865Z,1011.51
2023-05-12T05:39:24.752Z,1011.52
2023-05-12T05:40:25.640Z,1011.52
2023-05-12T05:41:26.604Z,1011.54
2023-05-12T05:42:27.450Z,1011.56
2023-05-12T05:43:28.323Z,1011.56
2023-05-12T05:44:29.205Z,1011.56
2023-05-12T05:45:30.092Z,1011.57
2023-05-12T05:46:31.056Z,1011.58
2023-05-12T05:47:31.989Z,1011.59
2023-05-12T05:48:32.877Z,1011.61
2023-05-12T05:49:33.766Z,1011.62
2023-05-12T05:50:34.670Z,1011.62
2023-05-12T05:51:35.607Z,1011.63
2023-05-12T05:52:36.479Z,1011.64
2023-05-12T05:53:37.366Z,1011.64
2023-05-12T05:54:38.297Z,1011.65
2023-05-12T05:55:39.194Z,1011.65
2023-05-12T05:56:40.110Z,1011.66
2023-05-12T05:57:40.970Z,1011.67
2023-05-12T05:58:41.852Z,1011.69
2023-05-12T05:59:42.758Z,1011.70
2023-05-12T06:00:43.651Z,1011.74
2023-05-12T06:01:44.542Z,1011.75
2023-05-12T06:02:45.491Z,1011.74
2023-05-12T06:03:46.442Z,1011.76
2023-05-12T06:04:47.349Z,1011.78
2023-05-12T06:05:48.264Z,1011.80
2023-05-12T06:06:49.141Z,1011.81
2023-05-12T06:07:50.032Z,1011.83
2023-05-12T06:08:50.912Z,1011.85
2023-05-12T06:09:51.825Z,1011.87
2023-05-12T06:10:52.708Z,1011.89
2023-05-12T06:11:53.613Z,1011.91
2023-05-12T06:12:54.475Z,1011.92
2023-05-12T06:13:55.381Z,1011.93
2023-05-12T06:14:56.297Z,1011.94
2023-05-12T06:15:57.174Z,1011.94
2023-05-12T06:16:58.096Z,1011.94
2023-05-12T06:17:59.040Z,1011.96
2023-05-12T06:18:59.997Z,1011.97
2023-05-12T06:20:00.859Z,1011.99
2023-05-12T06:21:01.760Z,1011.99
2023-05-12T06:22:02.631Z,1011.99
2023-05-12T06:23:03.514Z,1011.99
2023-05-12T06:24:04.439Z,1011.98
2023-05-12T06:25:05.305Z,1011.99
2023-05-12T06:26:06.190Z,1011.97
2023-05-12T06:27:07.111Z,1011.97
2023-05-12T06:28:07.989Z,1011.97
2023-05-12T06:29:08.892Z,1011.98
2023-05-12T06:30:09.788Z,1011.97
2023-05-12T06:31:10.665Z,1011.97
2023-05-12T06:32:11.656Z,1011.98
2023-05-12T06:33:12.072Z,1012.00
2023-05-12T06:34:12.956Z,1012.00
2023-05-12T06:35:13.839Z,1012.00
2023-05-12T06:36:14.766Z,1011.99
2023-05-12T06:37:15.699Z,1011.99
2023-05-12T06:38:16.604Z,1012.00
2023-05-12T06:39:17.487Z,1012.01
2023-05-12T06:40:18.376Z,1012.01
2023-05-12T06:41:19.257Z,1012.02
2023-05-12T06:42:20.203Z,1012.02
2023-05-12T06:43:21.051Z,1012.02
2023-05-12T06:44:21.933Z,1012.00
2023-05-12T06:45:22.972Z,1012.00
2023-05-12T06:46:23.435Z,1012.01
2023-05-12T06:47:24.321Z,1012.03
2023-05-12T06:48:25.189Z,1012.05
2023-05-12T06:49:26.081Z,1012.06
2023-05-12T06:50:27.020Z,1012.08
2023-05-12T06:51:27.938Z,1012.09
2023-05-12T06:52:28.836Z,1012.10
2023-05-12T06:53:29.732Z,1012.13
2023-05-12T06:54:30.615Z,1012.17
2023-05-12T06:55:31.497Z,1012.18
2023-05-12T06:56:32.404Z,1012.17
2023-05-12T06:57:33.426Z,1012.20
2023-05-12T06:58:34.274Z,1012.22
2023-05-12T06:59:35.155Z,1012.25
2023-05-12T07:00:36.079Z,1012.25
2023-05-12T07:01:37.010Z,1012.25
2023-05-12T07:02:37.912Z,1012.25
2023-05-12T07:03:38.904Z,1012.25
2023-05-12T07:04:39.287Z,1012.25
2023-05-12T07:05:40.221Z,1012.25
2023-05-12T07:06:41.094Z,1012.25
2023-05-12T07:07:41.978Z,1012.24
2023-05-12T07:08:42.854Z,1012.24
2023-05-12T07:09:43.745Z,1012.24
2023-05-12T07:10:44.642Z,1012.23
2023-05-12T07:11:45.552Z,1012.25
2023-05-12T07:12:46.433Z,1012.26
2023-05-12T07:13:47.302Z,1012.25
2023-05-12T07:14:48.207Z,1012.23
2023-05-12T07:15:49.162Z,1012.21
2023-05-12T07:16:50.012Z,1012.20
2023-05-12T07:17:50.923Z,1012.19
2023-05-12T07:18:51.841Z,1012.20
2023-05-12T07:19:52.768Z,1012.19
2023-05-12T07:20:53.744Z,1012.20
2023-05-12T07:21:54.154Z,1012.21
2023-05-12T07:22:55.029Z,1012.21
2023-05-12T07:23:55.933Z,1012.22
2023-05-12T07:24:56.936Z,1012.23
2023-05-12T07:25:57.344Z,1012.23
2023-05-12T07:26:58.229Z,1012.25
2023-05-12T07:27:59.149Z,1012.26
2023-05-12T07:29:00.034Z,1012.26
2023-05-12T07:30:00.918Z,1012.26
2023-05-12T07:31:01.839Z,1012.26
2023-05-12T07:32:02.689Z,1012.25
2023-05-12T07:33:03.634Z,1012.26
2023-05-12T07:34:04.535Z,1012.27
2023-05-12T07:35:05.418Z,1012.28
2023-05-12T07:36:06.299Z,1012.29
2023-05-12T07:37:07.201Z,1012.29
2023-05-12T07:38:08.103Z,1012.30
2023-05-12T07:39:09.015Z,1012.32
2023-05-12T07:40:09.911Z,1012.33
2023-05-12T07:41:10.780Z,1012.34
2023-05-12T07:42:11.665Z,1012.34
2023-05-12T07:43:12.604Z,1012.36
2023-05-12T07:44:13.470Z,1012.35
2023-05-12T07:45:14.369Z,1012.35
2023-05-12T07:46:15.243Z,1012.36
2023-05-12T07:47:16.197Z,1012.34
2023-05-12T07:48:17.069Z,1012.35
2023-05-12T07:49:17.963Z,1012.36
2023-05-12T07:50:18.831Z,1012.36
2023-05-12T07:51:19.720Z,1012.37
2023-05-12T07:52:20.626Z,1012.36
2023-05-12T07:53:21.520Z,1012.37
2023-05-12T07:54:22.413Z,1012.37
2023-05-12T07:55:23.457Z,1012.36
2023-05-12T07:56:23.933Z,1012.36
2023-05-12T07:57:24.842Z,1012.34
2023-05-12T07:58:26.073Z,1012.33
2023-05-12T07:59:26.415Z,1012.35
2023-05-12T08:00:27.303Z,1012.34
2023-05-12T08:01:28.218Z,1012.36
2023-05-12T08:02:29.154Z,1012.36
2023-05-12T08:03:30.078Z,1012.38
2023-05-12T08:04:31.038Z,1012.37
2023-05-12T08:05:31.883Z,1012.36
2023-05-12T08:06:32.794Z,1012.36
2023-05-12T08:07:33.713Z,1012.36
2023-05-12T08:08:34.634Z,1012.37
2023-05-12T08:09:35.504Z,1012.37
2023-05-12T08:10:36.406Z,1012.37
2023-05-12T08:11:37.308Z,1012.39
2023-05-12T08:12:38.192Z,1012.39
2023-05-12T08:13:39.127Z,1012.39
2023-05-12T08:14:39.980Z,1012.39
2023-05-12T08:15:40.891Z,1012.42
2023-05-12T08:16:41.797Z,1012.42
2023-05-12T08:17:42.660Z,1012.44
2023-05-12T08:18:43.550Z,1012.42
2023-05-12T08:19:44.432Z,1012.41
2023-05-12T08:20:45.333Z,1012.39
2023-05-12T08:21:46.213Z,1012.39
2023-05-12T08:22:47.105Z,1012.39
2023-05-12T08:23:47.991Z,1012.40
2023-05-12T08:24:48.894Z,1012.40
2023-05-12T08:25:49.807Z,1012.40
2023-05-12T08:26:50.696Z,1012.40
2023-05-12T08:27:52.486Z,1012.43
2023-05-12T08:28:52.521Z,1012.43
2023-05-12T08:29:52.901Z,1012.43
2023-05-12T08:30:53.805Z,1012.43
2023-05-12T08:31:54.695Z,1012.44
2023-05-12T08:32:55.579Z,1012.44
2023-05-12T08:34:08.953Z,1012.44
2023-05-12T08:34:58.259Z,1012.45
2023-05-12T08:35:58.142Z,1012.44
2023-05-12T08:36:59.024Z,1012.44
2023-05-12T08:37:59.926Z,1012.45
2023-05-12T08:39:00.815Z,1012.45
2023-05-12T08:40:01.696Z,1012.45
2023-05-12T08:41:02.591Z,1012.45
2023-05-12T08:42:03.479Z,1012.46
2023-05-12T08:43:04.388Z,1012.47
2023-05-12T08:44:05.494Z,1012.49
2023-05-12T08:45:05.826Z,1012.49
2023-05-12T08:46:06.720Z,1012.50
2023-05-12T08:47:07.601Z,1012.51
2023-05-12T08:48:08.518Z,1012.52
2023-05-12T08:49:09.389Z,1012.52
2023-05-12T08:50:10.284Z,1012.52
2023-05-12T08:51:11.154Z,1012.52
2023-05-12T08:52:12.039Z,1012.52
2023-05-12T08:53:12.945Z,1012.53
2023-05-12T08:54:13.826Z,1012.52
2023-05-12T08:55:14.716Z,1012.53
2023-05-12T08:57:16.559Z,1012.55
2023-05-12T08:58:17.049Z,1012.55
2023-05-12T08:59:17.998Z,1012.55
2023-05-12T09:00:19.083Z,1012.57
2023-05-12T09:01:19.668Z,1012.58
2023-05-12T09:02:20.705Z,1012.57
2023-05-12T09:03:21.626Z,1012.57
2023-05-12T09:04:22.576Z,1012.57
2023-05-12T09:05:23.591Z,1012.55
2023-05-12T09:06:24.094Z,1012.54
2023-05-12T09:07:25.007Z,1012.54
2023-05-12T09:08:25.899Z,1012.53
2023-05-12T09:09:27.503Z,1012.53
2023-05-12T09:10:35.074Z,1012.53
2023-05-12T09:11:29.176Z,1012.53
2023-05-12T09:12:29.053Z,1012.54
2023-05-12T09:13:29.936Z,1012.54
2023-05-12T09:14:30.994Z,1012.55
2023-05-12T09:15:31.324Z,1012.55
2023-05-12T09:16:32.375Z,1012.55
2023-05-12T09:17:32.778Z,1012.54
2023-05-12T09:18:33.695Z,1012.55
2023-05-12T09:19:34.545Z,1012.54
2023-05-12T09:20:35.477Z,1012.54
2023-05-12T09:21:36.360Z,1012.54
2023-05-12T09:22:37.251Z,1012.54
2023-05-12T09:23:38.134Z,1012.54
2023-05-12T09:24:39.036Z,1012.52
2023-05-12T09:25:39.924Z,1012.50
2023-05-12T09:26:40.816Z,1012.51
2023-05-12T09:27:41.693Z,1012.51
2023-05-12T09:28:42.581Z,1012.53
2023-05-12T09:29:51.763Z,1012.54
2023-05-12T09:30:45.312Z,1012.54
2023-05-12T09:31:45.217Z,1012.53
2023-05-12T09:32:46.074Z,1012.52
2023-05-12T09:33:47.051Z,1012.51
2023-05-12T09:34:56.525Z,1012.49
2023-05-12T09:35:48.890Z,1012.51
2023-05-12T09:36:49.791Z,1012.52
2023-05-12T09:37:50.677Z,1012.53
2023-05-12T09:38:51.569Z,1012.53
2023-05-12T09:39:52.565Z,1012.53
2023-05-12T09:40:53.415Z,1012.54
2023-05-12T09:41:54.296Z,1012.55
2023-05-12T09:42:55.178Z,1012.54
2023-05-12T09:43:56.089Z,1012.54
2023-05-12T09:44:57.041Z,1012.56
2023-05-12T09:45:57.930Z,1012.55
2023-05-12T09:46:58.796Z,1012.55
2023-05-12T09:47:59.755Z,1012.53
2023-05-12T09:49:09.606Z,1012.52
2023-05-12T09:50:01.532Z,1012.52
2023-05-12T09:51:02.405Z,1012.50
2023-05-12T09:52:03.295Z,1012.50
2023-05-12T09:53:04.182Z,1012.50
2023-05-12T09:54:07.152Z,1012.48
2023-05-12T09:55:05.707Z,1012.48
2023-05-12T09:56:06.595Z,1012.48
2023-05-12T09:57:07.488Z,1012.48
2023-05-12T09:58:08.395Z,1012.48
2023-05-12T09:59:09.291Z,1012.48
2023-05-12T10:00:20.218Z,1012.47
2023-05-12T10:09:58.068Z,1012.40
2023-05-12T10:10:56.961Z,1012.43
2023-05-12T10:11:57.853Z,1012.41
2023-05-12T10:12:59.506Z,1012.42
2023-05-12T10:13:59.448Z,1012.42
2023-05-12T10:14:59.912Z,1012.40
2023-05-12T10:16:00.888Z,1012.38
2023-05-12T10:17:01.777Z,1012.38
2023-05-12T10:18:02.693Z,1012.38
2023-05-12T10:19:03.585Z,1012.40
2023-05-12T10:20:04.442Z,1012.39
2023-05-12T10:21:05.325Z,1012.38
2023-05-12T10:22:06.238Z,1012.40
2023-05-12T10:23:07.125Z,1012.38
2023-05-12T10:24:08.015Z,1012.38
2023-05-12T10:25:08.945Z,1012.35
2023-05-12T10:26:09.852Z,1012.34
2023-05-12T10:27:10.795Z,1012.34
2023-05-12T10:28:11.705Z,1012.35
2023-05-12T10:29:12.699Z,1012.36
2023-05-12T10:30:13.102Z,1012.36
2023-05-12T10:31:14.130Z,1012.35
2023-05-12T10:32:14.971Z,1012.35
2023-05-12T10:33:15.891Z,1012.35
2023-05-12T10:34:16.816Z,1012.38
2023-05-12T10:35:17.754Z,1012.39
2023-05-12T10:36:18.714Z,1012.39
2023-05-12T10:37:19.599Z,1012.40
2023-05-12T10:38:20.490Z,1012.42
2023-05-12T10:39:21.380Z,1012.41
2023-05-12T10:40:22.411Z,1012.43
2023-05-12T10:41:22.846Z,1012.41
2023-05-12T10:45:18.803Z,1012.37
2023-05-12T10:46:26.986Z,1012.36
2023-05-12T10:47:19.897Z,1012.39
2023-05-12T10:48:20.388Z,1012.39
2023-05-12T10:49:20.883Z,1012.35
2023-05-12T10:50:21.786Z,1012.37
2023-05-12T10:51:22.679Z,1012.36
2023-05-12T10:52:23.552Z,1012.36
2023-05-12T10:53:24.450Z,1012.37
2023-05-12T10:54:34.303Z,1012.35
2023-05-12T10:55:26.481Z,1012.34
2023-05-12T10:56:27.148Z,1012.32
2023-05-12T10:57:27.939Z,1012.33
2023-05-12T10:58:29.083Z,1012.28
2023-05-12T10:59:29.645Z,1012.27
2023-05-12T11:00:30.427Z,1012.25
2023-05-12T11:01:30.803Z,1012.23
2023-05-12T11:02:32.546Z,1012.23
2023-05-12T11:03:33.362Z,1012.21
2023-05-12T11:04:33.886Z,1012.20
2023-05-12T11:05:33.920Z,1012.21
2023-05-12T11:06:34.551Z,1012.20
2023-05-12T11:07:35.543Z,1012.21
2023-05-12T11:08:35.982Z,1012.21
2023-05-12T11:09:40.243Z,1012.18
2023-05-12T11:10:39.000Z,1012.19
2023-05-12T11:11:38.420Z,1012.21
2023-05-12T11:12:38.876Z,1012.19
2023-05-12T11:13:39.825Z,1012.16
2023-05-12T11:14:40.718Z,1012.21
2023-05-12T11:15:41.600Z,1012.21
2023-05-12T11:16:42.684Z,1012.17
2023-05-12T11:17:43.148Z,1012.17
2023-05-12T11:18:44.071Z,1012.17
2023-05-12T11:19:44.950Z,1012.16
2023-05-12T11:20:45.836Z,1012.17
2023-05-12T11:21:46.756Z,1012.15
2023-05-12T11:22:47.654Z,1012.16
2023-05-12T11:23:48.537Z,1012.15
2023-05-12T11:24:49.452Z,1012.25
2023-05-12T11:25:50.356Z,1012.24
2023-05-12T11:26:51.217Z,1012.19
2023-05-12T11:27:52.110Z,1012.21
2023-05-12T11:28:52.989Z,1012.18
2023-05-12T11:29:53.871Z,1012.17
2023-05-12T11:30:55.656Z,1012.15
2023-05-12T11:31:55.833Z,1012.16
2023-05-12T11:32:56.745Z,1012.12
2023-05-12T11:34:10.841Z,1012.14
2023-05-12T11:34:59.402Z,1012.20
2023-05-12T11:35:59.310Z,1012.14
2023-05-12T11:37:00.218Z,1012.17
2023-05-12T11:38:01.098Z,1012.16
2023-05-12T11:39:01.976Z,1012.15
2023-05-12T11:40:02.918Z,1012.19
2023-05-12T11:41:03.834Z,1012.22
2023-05-12T11:42:12.137Z,1012.18
2023-05-12T11:43:06.473Z,1012.26
2023-05-12T11:44:06.379Z,1012.19
2023-05-12T11:45:07.346Z,1012.24
2023-05-12T11:46:08.243Z,1012.27
2023-05-12T11:47:09.257Z,1012.23
2023-05-12T11:48:10.199Z,1012.27
2023-05-12T11:49:11.240Z,1012.28
2023-05-12T11:50:11.614Z,1012.27
2023-05-12T11:51:12.501Z,1012.23
2023-05-12T11:52:13.384Z,1012.23
2023-05-12T11:53:14.285Z,1012.30
2023-05-12T11:54:15.189Z,1012.33
2023-05-12T11:55:16.198Z,1012.23
2023-05-12T11:56:16.627Z,1012.26
2023-05-12T11:57:17.503Z,1012.29
2023-05-12T11:58:18.427Z,1012.28
2023-05-12T11:59:19.401Z,1012.28
2023-05-12T12:00:20.435Z,1012.30
2023-05-12T12:01:20.835Z,1012.29
2023-05-12T12:02:21.793Z,1012.35
2023-05-12T12:03:22.799Z,1012.34
2023-05-12T12:04:23.219Z,1012.31
2023-05-12T12:05:24.115Z,1012.34
2023-05-12T12:06:25.003Z,1012.30
2023-05-12T12:07:25.890Z,1012.31
2023-05-12T12:08:26.817Z,1012.29
2023-05-12T12:09:27.728Z,1012.32
2023-05-12T12:10:28.609Z,1012.33
2023-05-12T12:11:29.496Z,1012.32
2023-05-12T12:12:30.397Z,1012.29
2023-05-12T12:13:31.330Z,1012.36
2023-05-12T12:14:32.206Z,1012.42
2023-05-12T12:15:33.098Z,1012.37
2023-05-12T12:16:34.014Z,1012.37
2023-05-12T12:17:34.912Z,1012.39
2023-05-12T12:18:36.081Z,1012.36
2023-05-12T12:19:36.527Z,1012.36
2023-05-12T12:20:37.462Z,1012.38
2023-05-12T12:21:38.421Z,1012.37
2023-05-12T12:22:39.306Z,1012.42
2023-05-12T12:23:50.350Z,1012.39
2023-05-12T12:24:42.019Z,1012.35
2023-05-12T12:25:41.925Z,1012.34
2023-05-12T12:26:42.912Z,1012.36
2023-05-12T12:27:43.804Z,1012.35
2023-05-12T12:28:44.738Z,1012.34
2023-05-12T12:29:45.630Z,1012.40